Time;durP1;ratioP1;P1;durP2;ratioP2;P2;SDS_P1;SDS_P2;PMS_P1;PMS_P2;Temp;Humidity;BMP_temperature;BMP_pressure;BME280_temperature;BME280_humidity;BME280_pressure;Samples;Min_cycle;Max_cycle;Signal;HPM_P1;HPM_P2
2022/11/05 00:09:41;;;;;;;13.77;10.20;;;7.60;99.90;;;8.00;92.69;97570.03;4983161;28;20448;-75
2022/11/05 00:17:44;;;;;;;15.67;9.30;;;7.70;99.90;;;8.06;92.46;97574.56;4984140;28;22488;-72
2022/11/05 00:20:12;;;;;;;10.20;8.60;;;7.70;99.90;;;8.05;92.38;97579.13;4989108;28;20448;-72
2022/11/05 00:25:25;;;;;;;8.30;7.13;;;7.90;99.90;;;7.92;92.51;97587.22;4970180;28;20461;-71
2022/11/05 00:27:53;;;;;;;9.10;8.17;;;7.90;99.90;;;8.09;92.21;97587.56;4970553;28;20458;-72
2022/11/05 00:30:25;;;;;;;11.00;8.00;;;8.00;99.90;;;8.09;92.07;97584.88;4981352;28;20556;-72
2022/11/05 00:32:53;;;;;;;8.77;7.87;;;8.00;99.90;;;7.94;91.90;97556.34;4976087;28;20462;-75
2022/11/05 00:35:22;;;;;;;8.80;7.90;;;8.00;99.90;;;7.65;92.32;97493.91;4975328;28;20901;-72
2022/11/05 00:37:49;;;;;;;13.00;7.60;;;8.00;99.90;;;8.27;91.94;97591.50;4994264;28;20489;-73
2022/11/05 00:40:17;;;;;;;9.33;8.43;;;8.00;99.90;;;8.31;91.28;97596.22;4980829;28;20454;-73
2022/11/05 00:45:31;;;;;;;9.50;8.50;;;8.00;99.90;;;8.41;92.33;97597.66;4976284;28;20464;-73
2022/11/05 00:50:43;;;;;;;9.87;7.87;;;8.20;99.90;;;8.48;90.68;97593.91;4974942;28;20967;-72
2022/11/05 00:53:10;;;;;;;8.50;7.70;;;8.30;99.90;;;8.33;91.54;97578.00;4975832;28;20463;-73
2022/11/05 00:55:41;;;;;;;8.20;7.40;;;8.30;99.90;;;8.44;90.86;97602.63;4970812;28;20502;-72
2022/11/05 00:58:11;;;;;;;8.27;7.40;;;8.20;99.90;;;8.39;90.67;97605.94;4985444;28;21084;-72
2022/11/05 01:00:43;;;;;;;8.43;7.63;;;8.30;99.90;;;8.34;90.19;97595.81;4968683;28;20464;-74
2022/11/05 01:03:12;;;;;;;13.27;7.90;;;8.30;99.90;;;8.35;91.26;97610.94;4978762;28;20457;-73
2022/11/05 01:05:42;;;;;;;10.53;7.50;;;8.20;99.90;;;8.46;91.26;97622.06;4972812;28;20474;-73
2022/11/05 01:08:10;;;;;;;11.30;8.47;;;8.20;99.90;;;8.42;91.63;97602.84;4988899;28;20461;-73
2022/11/05 01:10:41;;;;;;;7.93;7.23;;;8.30;99.90;;;8.47;91.41;97612.94;4975233;28;20976;-71
2022/11/05 01:13:09;;;;;;;10.10;7.90;;;8.30;99.90;;;8.43;90.98;97612.56;4969520;28;20545;-72
2022/11/05 01:15:37;;;;;;;9.13;7.90;;;8.30;99.90;;;8.34;91.33;97597.69;4966721;28;21010;-71
2022/11/05 01:18:06;;;;;;;8.90;7.30;;;8.30;99.90;;;8.39;91.15;97622.09;4989196;28;20489;-72
2022/11/05 01:20:33;;;;;;;10.90;7.77;;;8.20;99.90;;;8.54;90.67;97627.28;4959934;28;20463;-71
2022/11/05 01:23:00;;;;;;;8.40;6.83;;;8.30;99.90;;;8.61;90.61;97629.94;4973176;28;20466;-73
2022/11/05 01:25:28;;;;;;;8.17;7.33;;;8.40;99.90;;;8.64;90.17;97630.34;4985812;28;20462;-73
2022/11/05 01:27:55;;;;;;;10.20;8.47;;;8.40;99.90;;;8.66;90.93;97632.81;4986369;28;20472;-72
2022/11/05 01:30:23;;;;;;;8.47;7.60;;;8.40;99.90;;;8.60;89.52;97645.25;4973911;28;20523;-72
2022/11/05 01:32:50;;;;;;;8.30;6.77;;;8.40;99.90;;;8.55;89.50;97644.22;4958485;28;20462;-73
2022/11/05 01:35:20;;;;;;;10.30;7.47;;;8.40;99.90;;;8.59;89.73;97642.78;4955179;28;20472;-72
2022/11/05 01:37:47;;;;;;;8.33;7.53;;;8.40;99.90;;;8.66;89.56;97640.91;4976094;28;20495;-73
2022/11/05 01:40:20;;;;;;;9.13;8.23;;;8.40;99.90;;;8.67;89.66;97639.03;4992372;28;20474;-72
2022/11/05 01:42:47;;;;;;;8.67;7.67;;;8.50;99.90;;;8.47;90.21;97640.72;4986199;28;20464;-72
2022/11/05 01:45:18;;;;;;;8.70;7.80;;;8.40;99.90;;;8.36;90.45;97639.50;4970244;28;21029;-72
2022/11/05 01:47:59;;;;;;;8.37;7.17;;;8.30;99.90;;;8.26;89.85;97622.97;4971763;28;20461;-73
2022/11/05 01:50:34;;;;;;;8.27;7.47;;;8.30;99.90;;;8.45;89.48;97650.88;4955201;28;20449;-73
2022/11/05 01:53:16;;;;;;;9.13;7.70;;;8.20;99.90;;;8.52;90.32;97650.06;4969883;28;20975;-73
2022/11/05 01:55:50;;;;;;;9.30;7.70;;;8.30;99.90;;;8.61;90.25;97663.06;4964642;28;20462;-72
2022/11/05 01:58:23;;;;;;;6.80;6.20;;;8.30;99.90;;;8.50;89.74;97667.25;4989408;28;20517;-72
2022/11/05 02:00:50;;;;;;;11.30;7.53;;;8.30;99.90;;;8.34;90.23;97656.91;4983659;28;20462;-71
2022/11/05 02:03:19;;;;;;;8.80;6.93;;;8.20;99.90;;;8.45;89.83;97656.25;4974432;28;20466;-72
2022/11/05 02:05:51;;;;;;;9.77;8.23;;;8.20;99.90;;;8.52;90.12;97658.97;4978564;28;20473;-71
2022/11/05 02:08:30;;;;;;;12.23;8.00;;;8.20;99.90;;;8.52;90.12;97660.81;4988094;28;20875;-72
2022/11/05 02:10:58;;;;;;;7.90;6.67;;;8.20;99.90;;;8.51;89.78;97673.47;4987608;28;20463;-74
2022/11/05 02:13:25;;;;;;;7.93;7.13;;;8.20;99.90;;;8.53;89.02;97665.16;4969336;28;20526;-71
2022/11/05 02:16:03;;;;;;;9.10;7.53;;;8.20;99.90;;;8.63;89.59;97666.38;4984834;28;20464;-72
2022/11/05 02:18:44;;;;;;;8.43;7.60;;;8.30;99.90;;;8.68;89.85;97668.44;4971055;28;20505;-71
2022/11/05 02:21:56;;;;;;;7.13;6.43;;;8.40;99.90;;;8.63;89.60;97673.66;4980550;28;20457;-73
2022/11/05 02:24:56;;;;;;;7.90;7.10;;;8.30;99.90;;;8.62;89.93;97674.69;4976338;28;20466;-72
2022/11/05 02:28:14;;;;;;;9.10;8.20;;;8.30;99.90;;;8.67;90.06;97674.88;4988893;28;20463;-72
2022/11/05 02:30:47;;;;;;;8.83;7.37;;;8.40;99.90;;;8.63;89.62;97677.16;4975626;28;20513;-72
2022/11/05 02:33:31;;;;;;;7.40;6.60;;;8.40;99.90;;;8.63;89.52;97673.66;4977026;28;20466;-73
2022/11/05 02:36:29;;;;;;;7.60;6.93;;;8.40;99.90;;;8.61;89.89;97673.03;4958766;28;21036;-74
2022/11/05 02:39:11;;;;;;;8.90;7.83;;;8.30;99.90;;;8.62;89.86;97669.28;4971925;28;20505;-72
2022/11/05 02:41:47;;;;;;;9.40;7.80;;;8.40;99.90;;;8.59;90.17;97691.28;4972182;28;20455;-72
2022/11/05 02:44:23;;;;;;;8.40;7.60;;;8.40;99.90;;;8.61;90.33;97681.09;4980173;28;20474;-73
2022/11/05 02:46:59;;;;;;;7.43;6.73;;;8.30;99.90;;;8.58;90.32;97692.31;4982976;28;20462;-73
2022/11/05 02:49:44;;;;;;;9.80;5.70;;;8.30;99.90;;;8.68;88.88;97700.75;4976610;28;20463;-72
2022/11/05 02:52:21;;;;;;;6.73;6.13;;;8.40;99.90;;;8.61;88.63;97702.66;4977788;28;20480;-72
2022/11/05 02:54:57;;;;;;;8.90;6.23;;;8.40;99.90;;;8.56;89.51;97705.13;4987706;28;20469;-72
2022/11/05 02:57:25;;;;;;;8.73;6.67;;;8.30;99.90;;;8.67;90.04;97701.81;4964654;28;20486;-72
2022/11/05 03:00:01;;;;;;;8.40;7.20;;;8.40;99.90;;;8.58;90.23;97698.50;4981732;28;20551;-71
2022/11/05 03:02:30;;;;;;;9.93;7.30;;;8.40;99.90;;;8.61;90.70;97705.34;4985767;28;20949;-72
2022/11/05 03:04:58;;;;;;;7.80;7.10;;;8.40;99.90;;;8.68;89.92;97703.44;4985941;28;20472;-72
2022/11/05 03:07:37;;;;;;;9.27;6.90;;;8.40;99.90;;;8.27;89.48;97619.22;4971014;28;20464;-72
2022/11/05 03:10:30;;;;;;;7.40;6.70;;;8.50;99.90;;;8.78;88.96;97694.94;4981586;28;20830;-72
2022/11/05 03:13:10;;;;;;;8.17;7.33;;;8.50;99.90;;;8.73;88.60;97692.91;4985710;28;20477;-72
2022/11/05 03:15:54;;;;;;;7.90;7.03;;;8.50;99.90;;;8.64;89.17;97694.16;4970290;28;20490;-73
2022/11/05 03:18:31;;;;;;;8.03;6.33;;;8.50;99.90;;;8.74;88.71;97705.31;4966713;28;21069;-72
2022/11/05 03:21:03;;;;;;;9.00;6.77;;;8.50;99.90;;;8.76;89.47;97700.53;4979368;28;20468;-73
2022/11/05 03:23:36;;;;;;;8.10;7.30;;;8.50;99.90;;;8.71;90.60;97700.34;4962120;28;20466;-75
2022/11/05 03:26:11;;;;;;;7.93;6.60;;;8.50;99.90;;;8.73;90.82;97703.66;4961816;28;22243;-71
2022/11/05 03:28:44;;;;;;;9.60;6.50;;;8.50;99.90;;;8.53;90.45;97665.16;4981007;28;20468;-71
2022/11/05 03:31:13;;;;;;;8.53;6.90;;;8.50;99.90;;;8.67;90.28;97704.50;4984236;28;20462;-72
2022/11/05 03:33:44;;;;;;;7.07;6.47;;;8.50;99.90;;;8.76;89.79;97703.25;4983279;28;20470;-73
2022/11/05 03:36:19;;;;;;;7.60;6.80;;;8.50;99.90;;;8.49;89.75;97714.03;4985640;28;20956;-73
2022/11/05 03:38:51;;;;;;;6.10;5.50;;;8.40;99.90;;;8.45;89.40;97707.41;4966200;28;20484;-73
2022/11/05 03:41:20;;;;;;;7.70;6.20;;;8.30;99.90;;;8.49;89.39;97707.81;4969220;28;21128;-74
2022/11/05 03:43:54;;;;;;;7.50;5.70;;;8.40;99.90;;;8.27;89.97;97708.03;4982280;28;20477;-72
2022/11/05 03:46:29;;;;;;;7.40;6.70;;;8.20;99.90;;;8.27;90.45;97718.00;4980845;28;20472;-72
2022/11/05 03:49:01;;;;;;;9.63;6.70;;;8.20;99.90;;;8.41;90.58;97713.41;4980478;28;20469;-72
2022/11/05 03:51:38;;;;;;;7.87;7.10;;;8.20;99.90;;;8.43;89.87;97708.66;4984245;28;20454;-72
2022/11/05 03:54:06;;;;;;;7.70;7.00;;;8.20;99.90;;;8.31;90.39;97716.53;4980630;28;20469;-76
2022/11/05 03:56:40;;;;;;;8.03;7.23;;;8.20;99.90;;;8.45;90.18;97728.94;4966196;28;20453;-72
2022/11/05 03:59:09;;;;;;;8.20;6.73;;;8.20;99.90;;;8.32;90.67;97721.69;4983857;28;20510;-71
2022/11/05 04:01:38;;;;;;;7.67;6.87;;;8.20;99.90;;;8.53;89.66;97716.31;4968926;28;20468;-72
2022/11/05 04:04:08;;;;;;;7.87;6.80;;;8.20;99.90;;;8.55;89.15;97714.25;4986021;28;20902;-72
2022/11/05 04:14:50;;;;;;;9.20;8.30;;;8.20;99.90;;;8.26;90.56;97714.47;4968484;28;20457;-71
2022/11/05 04:17:17;;;;;;;8.90;8.00;;;8.10;99.90;;;7.63;91.29;97646.56;4976992;28;20475;-73
2022/11/05 04:25:20;;;;;;;9.53;8.63;;;8.10;99.90;;;8.02;91.90;97740.94;4990940;28;20540;-73
2022/11/05 04:27:48;;;;;;;14.83;9.50;;;8.00;99.90;;;8.10;92.36;97744.50;4995001;28;20515;-73
2022/11/05 04:30:20;;;;;;;12.97;10.50;;;7.90;99.90;;;8.14;91.91;97743.03;4975030;28;20840;-72
2022/11/05 04:33:03;;;;;;;11.27;9.60;;;7.90;99.90;;;7.87;92.96;97743.84;4994541;28;20468;-72
2022/11/05 04:35:35;;;;;;;11.37;9.53;;;7.80;99.90;;;7.77;93.99;97759.53;4976255;28;20461;-72
2022/11/05 04:38:02;;;;;;;14.97;12.07;;;7.80;99.90;;;7.86;94.46;97752.94;4993374;28;20483;-73
2022/11/05 04:40:30;;;;;;;13.87;11.60;;;7.80;99.90;;;7.90;94.28;97751.50;4993487;28;20469;-73
2022/11/05 04:42:57;;;;;;;14.83;12.83;;;7.80;99.90;;;7.98;93.77;97752.34;4983148;28;20894;-71
2022/11/05 04:45:26;;;;;;;16.13;12.10;;;7.90;99.90;;;8.05;94.12;97758.56;4979675;28;20464;-72
2022/11/05 04:47:54;;;;;;;17.70;14.00;;;7.90;99.90;;;8.01;93.40;97754.63;4979480;28;20458;-73
2022/11/05 04:50:21;;;;;;;18.87;14.50;;;7.90;99.90;;;8.26;93.40;97762.06;4985690;28;20467;-72
2022/11/05 04:52:50;;;;;;;16.10;13.10;;;8.00;99.90;;;8.24;92.34;97770.38;4991235;28;20484;-72
2022/11/05 04:55:17;;;;;;;13.50;11.20;;;8.10;99.90;;;8.02;93.06;97753.59;4962510;28;20518;-72
2022/11/05 04:57:48;;;;;;;14.70;10.80;;;8.00;99.90;;;8.32;92.27;97772.03;4974551;28;20486;-73
2022/11/05 05:00:15;;;;;;;14.33;11.03;;;8.10;99.90;;;8.45;91.75;97776.56;4976774;28;20557;-72
2022/11/05 05:02:42;;;;;;;11.53;10.20;;;8.20;99.90;;;8.32;91.39;97780.09;4988258;28;20475;-71
2022/11/05 05:05:10;;;;;;;12.30;10.90;;;8.20;99.90;;;8.30;92.00;97787.56;4982392;28;20953;-71
2022/11/05 05:07:37;;;;;;;12.87;11.40;;;8.20;99.90;;;8.41;91.79;97797.69;4987069;28;20474;-72
2022/11/05 05:10:08;;;;;;;15.67;10.13;;;8.20;99.90;;;8.34;91.37;97796.88;4967810;28;21344;-72
2022/11/05 05:12:35;;;;;;;12.80;10.87;;;8.20;99.90;;;8.33;91.66;97800.59;4983199;28;20499;-72
2022/11/05 05:15:04;;;;;;;16.63;11.93;;;8.10;99.90;;;8.50;91.14;97811.84;4981259;28;20580;-72
2022/11/05 05:17:31;;;;;;;14.93;12.73;;;8.20;99.90;;;8.63;90.57;97811.00;4987070;28;20479;-72
2022/11/05 05:22:43;;;;;;;13.53;12.13;;;8.40;99.90;;;8.59;90.71;97815.97;4990341;28;20520;-71
2022/11/05 05:25:11;;;;;;;14.43;12.10;;;8.40;99.90;;;8.46;91.35;97815.91;4989973;28;20481;-72
2022/11/05 05:27:38;;;;;;;17.33;14.30;;;8.40;99.90;;;8.68;91.12;97819.25;4974793;28;20454;-72
2022/11/05 05:30:08;;;;;;;16.70;13.93;;;8.50;99.90;;;8.72;89.05;97804.38;4989557;28;20501;-73
2022/11/05 05:32:35;;;;;;;18.87;14.03;;;8.50;99.90;;;8.71;89.07;97813.47;4992773;28;20500;-72
2022/11/05 05:35:02;;;;;;;16.43;13.53;;;8.50;99.90;;;8.73;89.53;97830.25;4992015;28;20523;-73
2022/11/05 05:37:30;;;;;;;17.67;13.47;;;8.50;99.90;;;8.59;89.46;97824.03;4992543;28;20876;-73
2022/11/05 05:39:57;;;;;;;17.10;13.63;;;8.40;99.90;;;8.29;90.56;97773.25;4991346;28;20526;-73
2022/11/05 05:42:25;;;;;;;19.70;14.83;;;8.40;99.90;;;8.60;90.95;97832.97;4984989;28;20495;-74
2022/11/05 05:44:52;;;;;;;20.00;14.13;;;8.40;99.90;;;8.70;90.54;97838.75;4966745;28;20464;-71
2022/11/05 05:47:19;;;;;;;19.87;14.60;;;8.50;99.90;;;8.84;89.09;97849.50;4979404;28;20469;-72
2022/11/05 05:49:47;;;;;;;18.07;14.13;;;8.60;99.90;;;8.71;89.22;97853.84;4969335;28;20465;-72
2022/11/05 05:52:14;;;;;;;15.30;13.70;;;8.50;99.90;;;8.62;90.04;97849.72;4973522;28;20503;-72
2022/11/05 05:54:41;;;;;;;19.90;14.67;;;8.40;99.90;;;8.76;89.22;97851.41;4991589;28;20466;-72
2022/11/05 05:57:08;;;;;;;17.00;13.67;;;8.40;99.90;;;8.75;89.63;97863.22;4972712;28;20456;-72
2022/11/05 05:59:37;;;;;;;23.50;16.20;;;8.40;99.90;;;8.64;89.28;97861.13;4978550;28;20467;-72
2022/11/05 06:02:04;;;;;;;18.90;14.73;;;8.50;99.90;;;8.44;90.25;97861.91;4992091;28;20473;-72
2022/11/05 06:04:31;;;;;;;20.20;15.30;;;8.30;99.90;;;8.51;90.62;97861.97;4976239;28;20494;-73
2022/11/05 06:06:58;;;;;;;18.30;14.77;;;8.30;99.90;;;8.59;90.74;97869.00;4956191;28;20504;-72
2022/11/05 06:09:27;;;;;;;19.60;15.70;;;8.30;99.90;;;8.64;89.78;97861.13;4960816;28;20464;-72
2022/11/05 06:11:54;;;;;;;17.67;15.27;;;8.50;99.90;;;8.76;89.57;97869.41;4988698;28;20464;-72
2022/11/05 06:14:21;;;;;;;17.47;14.30;;;8.60;99.90;;;8.66;89.76;97871.69;4968200;28;21036;-72
2022/11/05 06:16:50;;;;;;;17.20;14.50;;;8.60;99.90;;;8.62;89.54;97884.75;4983545;28;20472;-72
2022/11/05 06:19:17;;;;;;;19.40;15.70;;;8.50;99.90;;;8.67;90.41;97876.88;4990186;28;20476;-73
2022/11/05 06:21:44;;;;;;;18.63;14.67;;;8.50;99.90;;;8.80;89.01;97886.84;4969746;28;20444;-73
2022/11/05 06:24:11;;;;;;;21.97;14.80;;;8.60;99.90;;;8.63;88.69;97864.84;4967191;28;20473;-72
2022/11/05 06:26:41;;;;;;;19.67;15.33;;;8.60;99.90;;;8.93;88.49;97894.06;4985287;28;20481;-72
2022/11/05 06:29:09;;;;;;;19.73;15.20;;;8.60;99.90;;;8.96;87.89;97895.53;4966870;28;20465;-71
2022/11/05 06:31:37;;;;;;;18.47;14.30;;;8.70;99.90;;;8.93;87.99;97896.78;4984510;28;20568;-72
2022/11/05 06:34:05;;;;;;;16.13;14.13;;;8.70;99.90;;;8.94;88.32;97893.03;4972282;28;20956;-71
2022/11/05 06:36:33;;;;;;;20.23;14.93;;;8.70;99.90;;;8.83;88.15;97901.72;4973646;28;20487;-72
2022/11/05 06:39:00;;;;;;;20.07;15.30;;;8.70;99.90;;;8.93;88.82;97902.16;4991831;28;20479;-71
2022/11/05 06:41:27;;;;;;;18.43;14.93;;;8.70;99.90;;;8.99;88.50;97905.91;4989087;28;20450;-72
2022/11/05 06:43:54;;;;;;;17.90;14.00;;;8.70;99.90;;;9.03;87.58;97905.28;4979529;28;20469;-72
2022/11/05 06:46:21;;;;;;;19.90;15.40;;;8.80;99.90;;;9.00;87.99;97908.34;4961103;28;20810;-72
2022/11/05 06:48:49;;;;;;;18.47;15.53;;;8.80;99.90;;;9.01;88.33;97909.22;4976051;28;20465;-72
2022/11/05 06:51:18;;;;;;;19.43;16.10;;;8.70;99.90;;;9.09;87.98;97918.94;4977605;28;20551;-72
2022/11/05 06:53:45;;;;;;;23.20;15.63;;;8.80;99.90;;;9.02;88.40;97919.78;4973742;28;20883;-72
2022/11/05 06:56:12;;;;;;;24.00;16.33;;;8.80;99.90;;;8.94;88.47;97925.38;4990007;28;20467;-71
2022/11/05 06:58:39;;;;;;;28.60;18.20;;;8.80;99.90;;;8.90;88.03;97924.13;4972372;28;20484;-68
2022/11/05 07:01:08;;;;;;;25.67;18.20;;;8.80;99.90;;;8.91;88.71;97933.88;4980454;28;20956;-68
2022/11/05 07:03:36;;;;;;;23.47;17.70;;;8.70;99.90;;;8.84;88.02;97924.94;4977782;28;20482;-70
2022/11/05 07:06:06;;;;;;;24.70;17.77;;;8.70;99.90;;;8.41;88.54;97865.00;4964070;28;20859;-68
2022/11/05 07:08:36;;;;;;;28.90;16.40;;;8.70;99.90;;;8.85;88.87;97937.38;4980437;28;21110;-69
2022/11/05 07:11:04;;;;;;;28.93;17.57;;;8.60;99.90;;;8.98;89.08;97944.66;4983530;28;20460;-69
2022/11/05 07:13:31;;;;;;;30.40;17.93;;;8.70;99.90;;;8.79;89.29;97939.88;4979895;28;20478;-68
2022/11/05 07:15:59;;;;;;;27.10;18.10;;;8.70;99.90;;;8.70;89.69;97946.47;4981359;28;20453;-68
2022/11/05 07:18:26;;;;;;;27.87;17.73;;;8.60;99.90;;;8.92;89.18;97946.31;4966696;28;20534;-68
2022/11/05 07:20:53;;;;;;;28.50;19.83;;;8.70;99.90;;;9.18;87.48;97947.34;4983496;28;20458;-70
2022/11/05 07:23:20;;;;;;;31.63;19.00;;;8.90;99.90;;;9.25;88.22;97953.56;4981556;28;20484;-71
2022/11/05 07:25:49;;;;;;;27.17;18.13;;;8.90;99.90;;;9.05;87.75;97959.78;4963428;28;20468;-71
2022/11/05 07:28:16;;;;;;;29.53;18.70;;;8.90;99.90;;;9.10;88.11;97963.72;4979005;28;20470;-72
2022/11/05 07:30:43;;;;;;;28.03;17.77;;;8.90;99.90;;;9.36;87.14;97965.56;4980807;28;20541;-70
2022/11/05 07:33:10;;;;;;;23.00;17.23;;;9.10;99.90;;;9.55;85.82;97963.91;4964119;28;20460;-71
2022/11/05 07:35:37;;;;;;;27.00;18.27;;;9.20;99.90;;;9.51;85.84;97965.38;4979092;28;20467;-70
2022/11/05 07:38:05;;;;;;;23.77;17.83;;;9.30;99.90;;;9.38;86.50;97941.09;4967570;28;20550;-71
2022/11/05 07:40:32;;;;;;;24.50;17.97;;;9.30;99.90;;;9.61;85.57;97968.44;4961909;28;20450;-72
2022/11/05 07:43:01;;;;;;;26.97;16.50;;;9.30;99.60;;;9.75;85.90;97974.66;4964570;28;20466;-73
2022/11/05 07:45:31;;;;;;;28.50;18.40;;;9.40;99.90;;;10.12;83.83;97978.69;4982287;28;20506;-69
2022/11/05 07:48:00;;;;;;;22.10;16.70;;;9.60;99.40;;;9.97;83.67;97987.06;4976002;28;21102;-67
2022/11/05 07:50:30;;;;;;;22.87;17.50;;;9.70;96.80;;;9.61;84.83;97992.72;4977848;28;20461;-67
2022/11/05 07:53:01;;;;;;;27.63;17.70;;;9.60;96.30;;;9.79;84.53;98002.06;4977219;28;20469;-67
2022/11/05 07:55:28;;;;;;;26.57;18.90;;;9.60;96.60;;;9.86;85.40;98000.16;4960360;28;20458;-67
2022/11/05 07:57:55;;;;;;;23.70;18.67;;;9.60;97.40;;;9.54;84.05;97940.66;4977196;28;20477;-67
2022/11/05 08:00:25;;;;;;;25.00;17.53;;;9.70;97.00;;;9.80;84.08;98001.00;4981234;28;20468;-66
2022/11/05 08:02:59;;;;;;;27.93;17.87;;;9.70;96.20;;;9.95;83.76;98010.72;4969475;28;20954;-67
2022/11/05 08:05:26;;;;;;;20.77;17.53;;;9.70;95.80;;;10.14;83.93;97999.03;4961489;28;20471;-68
2022/11/05 08:07:54;;;;;;;30.23;18.47;;;9.90;95.80;;;10.11;83.46;98004.88;4978125;28;20462;-67
2022/11/05 08:10:22;;;;;;;21.97;17.60;;;10.00;94.20;;;10.24;82.05;97989.66;4980014;28;20458;-68
2022/11/05 08:12:49;;;;;;;25.30;18.50;;;10.10;93.50;;;10.84;80.79;97985.81;4988150;28;20832;-67
2022/11/05 08:15:16;;;;;;;21.43;17.13;;;10.40;93.30;;;10.91;80.02;97989.31;4980300;28;20468;-67
2022/11/05 08:17:45;;;;;;;15.33;13.73;;;10.50;92.60;;;10.93;77.10;97994.53;4988294;28;20527;-68
2022/11/05 08:20:13;;;;;;;16.60;14.10;;;10.70;89.60;;;11.12;75.93;97998.13;4984270;28;20461;-67
2022/11/05 08:22:43;;;;;;;20.70;16.10;;;10.80;89.20;;;11.03;77.43;98000.25;4989563;28;21084;-69
2022/11/05 08:25:11;;;;;;;16.33;14.23;;;10.70;89.90;;;10.83;77.25;98008.50;4987804;28;20804;-68
2022/11/05 08:27:38;;;;;;;18.70;15.33;;;10.60;89.90;;;10.54;77.85;97998.06;4987990;28;20473;-67
2022/11/05 08:30:08;;;;;;;19.80;15.23;;;10.50;90.20;;;10.69;78.73;98011.31;4983890;28;20570;-66
2022/11/05 08:32:35;;;;;;;18.57;15.73;;;10.40;90.90;;;10.79;78.26;98004.56;4982065;28;20476;-68
2022/11/05 08:35:05;;;;;;;19.53;16.70;;;10.40;90.80;;;10.81;78.03;98011.44;4982129;28;20461;-83
2022/11/05 08:37:32;;;;;;;16.03;14.20;;;10.50;90.50;;;10.77;77.11;98011.03;4983445;28;20462;-77
2022/11/05 08:39:59;;;;;;;16.07;14.20;;;10.50;89.70;;;10.60;76.52;98012.59;4975825;28;20544;-66
2022/11/05 08:42:27;;;;;;;18.73;12.20;;;10.40;89.00;;;10.71;76.61;98013.75;4957040;28;20458;-67
2022/11/05 08:44:54;;;;;;;16.67;14.53;;;10.50;89.10;;;10.89;76.72;98021.16;4964521;28;20461;-67
2022/11/05 08:47:22;;;;;;;18.30;14.50;;;10.50;89.50;;;10.83;76.70;98012.03;4981712;28;20467;-66
2022/11/05 08:49:49;;;;;;;18.43;16.50;;;10.70;88.90;;;11.15;76.86;98027.44;4968558;28;20830;-67
2022/11/05 08:52:18;;;;;;;18.90;15.00;;;10.80;89.90;;;11.31;75.35;98024.19;4981134;28;20494;-65
2022/11/05 08:54:45;;;;;;;15.97;14.00;;;11.00;88.30;;;11.12;74.42;98026.00;4958500;28;20462;-66
2022/11/05 08:57:12;;;;;;;18.67;13.50;;;11.00;86.90;;;11.04;74.22;98035.19;4960862;28;20503;-66
2022/11/05 08:59:39;;;;;;;15.33;13.50;;;11.00;86.50;;;10.81;75.04;98045.72;4978196;28;20514;-65
2022/11/05 09:02:06;;;;;;;16.03;14.13;;;10.80;86.50;;;10.82;75.46;98040.13;4966275;28;20531;-66
2022/11/05 09:04:34;;;;;;;18.00;15.43;;;10.60;87.00;;;10.71;77.41;98036.22;4967177;28;21475;-66
2022/11/05 09:07:01;;;;;;;19.10;16.73;;;10.60;88.50;;;10.75;77.85;98048.25;4967648;28;20490;-67
2022/11/05 09:09:29;;;;;;;21.60;16.70;;;10.60;90.00;;;10.76;77.76;98043.66;4986271;28;20458;-67
2022/11/05 09:11:56;;;;;;;19.87;16.43;;;10.60;90.40;;;10.68;77.73;98050.16;4982803;28;20565;-67
2022/11/05 09:14:25;;;;;;;21.43;16.60;;;10.60;90.10;;;10.68;78.20;98052.84;4967572;28;20527;-67
2022/11/05 09:16:52;;;;;;;19.03;16.13;;;10.60;90.20;;;10.58;78.34;98050.63;4964396;28;20803;-67
2022/11/05 09:19:20;;;;;;;19.63;16.20;;;10.50;90.20;;;10.59;78.64;98059.56;4983358;28;21021;-68
2022/11/05 09:21:47;;;;;;;20.07;16.53;;;10.50;90.30;;;10.48;78.10;98052.97;4984290;28;20525;-67
2022/11/05 09:24:14;;;;;;;18.40;15.10;;;10.50;90.00;;;10.56;78.61;98049.19;4983585;28;20951;-66
2022/11/05 09:26:43;;;;;;;18.47;15.40;;;10.50;90.30;;;10.53;78.19;98060.41;4983034;28;21054;-67
2022/11/05 09:29:10;;;;;;;22.20;16.60;;;10.50;89.70;;;10.12;77.62;97992.19;4965179;28;20822;-66
2022/11/05 09:31:37;;;;;;;19.57;16.43;;;10.60;89.50;;;10.75;77.77;98063.63;4967112;28;20842;-67
2022/11/05 09:34:04;;;;;;;20.53;16.43;;;10.50;90.10;;;10.90;77.36;98057.94;4977926;28;20534;-66
2022/11/05 09:36:31;;;;;;;24.00;18.53;;;10.70;89.90;;;10.81;77.59;98064.63;4983793;28;20463;-67
2022/11/05 09:38:58;;;;;;;23.60;17.87;;;10.70;89.90;;;10.94;76.36;98053.75;4983325;28;20546;-74
2022/11/05 09:41:30;;;;;;;23.53;19.43;;;10.80;88.40;;;10.99;75.81;98051.22;4981863;28;20522;-74
2022/11/05 09:44:05;;;;;;;25.73;19.67;;;10.80;88.50;;;10.99;75.56;98043.13;4978426;28;20949;-67
2022/11/05 09:46:41;;;;;;;24.03;18.07;;;10.90;88.30;;;10.86;76.38;98065.66;4967509;28;20557;-69
2022/11/05 09:49:24;;;;;;;23.03;19.10;;;10.70;88.10;;;10.82;76.66;98069.00;4987050;28;20514;-68
2022/11/05 09:51:53;;;;;;;23.17;17.50;;;10.70;88.00;;;11.05;75.69;98074.69;4986419;28;20557;-68
2022/11/05 09:54:24;;;;;;;22.20;18.10;;;10.80;88.30;;;11.11;75.26;98064.91;4985878;28;20692;-68
2022/11/05 09:56:53;;;;;;;20.80;17.10;;;10.90;87.80;;;11.15;74.38;98068.00;4981382;28;20474;-69
2022/11/05 09:59:27;;;;;;;18.47;16.47;;;11.10;87.30;;;11.22;74.09;98067.94;4977229;28;20485;-67
2022/11/05 10:02:02;;;;;;;23.40;19.30;;;11.10;86.80;;;11.31;73.98;98072.03;4962468;28;20958;-68
2022/11/05 10:04:31;;;;;;;22.30;18.30;;;11.20;86.10;;;11.67;71.89;98081.31;4979222;28;20984;-74
2022/11/05 10:07:02;;;;;;;20.70;18.17;;;11.40;85.50;;;11.69;72.65;98079.25;4982135;28;20470;-67
2022/11/05 10:09:36;;;;;;;20.80;16.53;;;11.60;85.40;;;12.10;70.35;98081.59;4962242;28;20486;-67
2022/11/05 10:12:09;;;;;;;19.57;17.33;;;11.80;84.80;;;12.21;68.77;98086.28;4980236;28;20477;-66
2022/11/05 10:14:43;;;;;;;19.37;15.73;;;12.00;83.30;;;12.53;66.47;98085.34;4977800;28;20480;-66
2022/11/05 10:17:16;;;;;;;19.07;15.00;;;12.20;82.00;;;12.59;66.02;98092.53;4964461;28;20442;-66
2022/11/05 10:19:47;;;;;;;16.50;14.43;;;12.40;81.40;;;12.77;65.06;98082.72;4989146;28;20865;-65
2022/11/05 10:22:18;;;;;;;17.03;14.57;;;12.40;80.80;;;12.70;64.79;98083.66;4969539;28;20842;-66
2022/11/05 10:24:48;;;;;;;16.33;14.60;;;12.50;80.30;;;12.61;65.63;98091.28;4972581;28;20507;-66
2022/11/05 10:27:22;;;;;;;19.37;15.90;;;12.50;80.30;;;12.49;66.24;98097.66;4977934;28;20446;-67
2022/11/05 10:29:51;;;;;;;17.70;14.80;;;12.40;80.50;;;12.64;65.57;98079.13;4988727;28;20451;-66
2022/11/05 10:32:27;;;;;;;19.00;14.77;;;12.40;80.60;;;12.97;65.94;98093.31;4988826;28;20507;-66
2022/11/05 10:34:59;;;;;;;16.67;14.87;;;12.60;81.00;;;13.23;64.88;98097.53;4956756;28;20996;-67
2022/11/05 10:37:28;;;;;;;20.13;16.93;;;12.80;80.40;;;13.39;64.45;98089.81;4979822;28;20474;-65
2022/11/05 10:39:55;;;;;;;18.80;15.90;;;13.10;80.10;;;13.00;64.80;98098.28;4961364;28;20524;-66
2022/11/05 10:42:47;;;;;;;18.13;14.90;;;13.00;79.70;;;12.63;65.73;98099.16;4982335;28;20460;-66
2022/11/05 10:45:32;;;;;;;17.67;15.77;;;12.70;80.00;;;12.22;67.57;98108.81;4984825;28;20485;-66
2022/11/05 10:48:40;;;;;;;20.70;15.67;;;12.20;80.60;;;12.66;66.20;98106.84;4969360;28;20463;-67
2022/11/05 10:51:08;;;;;;;17.20;15.27;;;12.40;80.70;;;12.69;65.92;98100.97;4979256;28;20457;-66
2022/11/05 10:53:37;;;;;;;18.03;13.83;;;12.50;80.30;;;12.26;66.71;98107.28;4988611;28;20927;-66
2022/11/05 10:56:35;;;;;;;16.07;14.03;;;12.40;79.80;;;12.41;66.84;98102.34;4977889;28;20504;-66
2022/11/05 10:59:05;;;;;;;17.70;15.00;;;12.30;80.60;;;12.22;67.82;98114.22;4959620;28;20904;-66
2022/11/05 11:01:33;;;;;;;14.87;13.37;;;12.20;80.70;;;11.85;69.98;98113.03;4951394;28;20456;-66
2022/11/05 11:04:23;;;;;;;14.33;12.73;;;11.90;82.10;;;11.69;70.12;98102.78;4952877;28;20455;-66
2022/11/05 11:06:53;;;;;;;18.17;15.53;;;11.70;81.90;;;11.46;71.70;98115.03;4982880;28;20515;-66
2022/11/05 11:09:25;;;;;;;17.70;15.73;;;11.40;82.80;;;11.45;71.79;98111.47;4980486;28;20467;-67
2022/11/05 11:12:02;;;;;;;17.20;14.70;;;11.40;83.10;;;11.42;71.73;98105.66;4975095;28;20461;-66
2022/11/05 11:14:30;;;;;;;18.50;15.17;;;11.30;83.50;;;11.32;72.60;98109.69;4981140;28;20461;-67